createdAt,value
2022-12-28T00:00:48.975Z,4.60
2022-12-28T00:03:51.862Z,5.73
2022-12-28T00:06:53.580Z,5.23
2022-12-28T00:09:55.229Z,5.67
2022-12-28T00:12:57.000Z,4.60
2022-12-28T00:15:59.538Z,2.93
2022-12-28T00:19:05.688Z,6.50
2022-12-28T00:22:07.374Z,6.40
2022-12-28T00:25:09.380Z,6.73
2022-12-28T00:28:11.066Z,3.87
2022-12-28T00:31:12.966Z,6.60
2022-12-28T00:34:14.938Z,5.90
2022-12-28T00:37:16.604Z,3.67
2022-12-28T00:40:23.775Z,4.80
2022-12-28T00:43:26.420Z,3.50
2022-12-28T00:46:28.120Z,7.07
2022-12-28T00:49:29.791Z,5.07
2022-12-28T00:52:31.480Z,7.80
2022-12-28T00:55:34.127Z,5.97
2022-12-28T00:58:36.829Z,6.50
2022-12-28T01:01:38.764Z,4.80
2022-12-28T01:04:40.491Z,6.93
2022-12-28T01:07:42.259Z,5.17
2022-12-28T01:10:43.977Z,5.67
2022-12-28T01:13:46.110Z,5.43
2022-12-28T01:16:47.963Z,4.93
2022-12-28T01:19:53.920Z,4.23
2022-12-28T01:22:55.878Z,8.97
2022-12-28T01:26:02.087Z,6.10
2022-12-28T01:29:04.084Z,4.97
2022-12-28T01:32:05.853Z,7.50
2022-12-28T01:35:08.032Z,4.13
2022-12-28T01:38:09.721Z,5.43
2022-12-28T01:41:15.221Z,4.77
2022-12-28T01:44:16.893Z,3.80
2022-12-28T01:47:23.704Z,5.70
2022-12-28T01:50:28.255Z,7.37
2022-12-28T01:53:29.945Z,5.90
2022-12-28T01:56:31.936Z,6.93
2022-12-28T01:59:39.426Z,4.57
2022-12-28T02:02:46.765Z,3.60
2022-12-28T02:05:50.814Z,4.50
2022-12-28T02:09:10.364Z,4.30
2022-12-28T02:12:15.727Z,5.83
2022-12-28T02:15:22.866Z,5.47
2022-12-28T02:18:25.408Z,5.20
2022-12-28T02:21:46.004Z,4.03
2022-12-28T02:25:11.992Z,4.90
2022-12-28T02:28:41.917Z,4.87
2022-12-28T02:32:11.418Z,6.70
2022-12-28T02:35:21.733Z,10.63
2022-12-28T02:38:34.575Z,8.60
2022-12-28T02:41:38.791Z,8.20
2022-12-28T02:44:58.935Z,3.77
2022-12-28T02:48:19.462Z,3.77
2022-12-28T02:51:49.594Z,3.30
2022-12-28T02:55:28.884Z,4.27
2022-12-28T02:58:50.697Z,6.43
2022-12-28T03:01:55.393Z,5.00
2022-12-28T03:05:08.428Z,5.77
2022-12-28T03:08:22.584Z,3.93
2022-12-28T03:11:40.414Z,4.93
2022-12-28T03:14:56.061Z,6.40
2022-12-28T03:18:31.032Z,6.33
2022-12-28T03:21:53.033Z,4.73
2022-12-28T03:25:14.628Z,5.33
2022-12-28T03:28:39.177Z,5.43
2022-12-28T03:31:42.016Z,3.57
2022-12-28T03:34:43.748Z,4.00
2022-12-28T03:38:02.023Z,5.43
2022-12-28T03:41:10.652Z,5.60
2022-12-28T03:44:26.166Z,4.80
2022-12-28T03:47:29.899Z,3.70
2022-12-28T03:50:36.760Z,6.30
2022-12-28T03:53:42.748Z,6.43
2022-12-28T03:56:50.052Z,4.80
2022-12-28T03:59:51.765Z,7.43
2022-12-28T04:02:53.499Z,5.60
2022-12-28T04:05:55.801Z,4.63
2022-12-28T04:08:57.437Z,8.13
2022-12-28T04:11:59.145Z,7.43
2022-12-28T04:15:00.802Z,6.07
2022-12-28T04:18:02.649Z,7.40
2022-12-28T04:21:04.506Z,8.10
2022-12-28T04:24:06.364Z,4.70
2022-12-28T04:27:08.083Z,5.57
2022-12-28T04:30:10.235Z,5.37
2022-12-28T04:33:11.884Z,8.17
2022-12-28T04:36:16.041Z,5.13
2022-12-28T04:39:17.786Z,4.47
2022-12-28T04:42:19.404Z,4.93
2022-12-28T04:45:22.395Z,5.20
2022-12-28T04:48:24.924Z,6.20
2022-12-28T04:51:28.319Z,4.63
2022-12-28T04:54:29.951Z,4.63
2022-12-28T04:57:31.582Z,5.47
2022-12-28T05:00:33.406Z,5.20
2022-12-28T05:03:36.236Z,6.23
2022-12-28T05:06:37.943Z,7.50
2022-12-28T05:09:39.624Z,4.27
2022-12-28T05:12:41.594Z,7.57
2022-12-28T05:15:43.259Z,5.10
2022-12-28T05:18:44.930Z,5.87
2022-12-28T05:21:46.739Z,5.17
2022-12-28T05:24:48.462Z,4.60
2022-12-28T05:27:50.145Z,5.13
2022-12-28T05:30:52.843Z,9.37
2022-12-28T05:33:54.895Z,9.00
2022-12-28T05:36:56.602Z,6.93
2022-12-28T05:40:01.662Z,5.47
2022-12-28T05:43:03.392Z,3.93
2022-12-28T05:46:07.855Z,5.50
2022-12-28T05:49:09.958Z,6.13
2022-12-28T05:52:11.595Z,5.80
2022-12-28T05:55:13.398Z,5.40
2022-12-28T05:58:15.090Z,5.70
2022-12-28T06:01:19.201Z,7.30
2022-12-28T06:04:21.235Z,6.37
2022-12-28T06:07:23.233Z,5.33
2022-12-28T06:10:24.955Z,5.07
2022-12-28T06:13:29.897Z,4.10
2022-12-28T06:16:38.922Z,5.77
2022-12-28T06:19:41.761Z,5.73
2022-12-28T06:22:43.501Z,6.03
2022-12-28T06:25:45.162Z,5.27
2022-12-28T06:28:48.072Z,9.07
2022-12-28T06:31:51.281Z,5.67
2022-12-28T06:34:53.052Z,6.63
2022-12-28T06:37:54.746Z,6.40
2022-12-28T06:41:16.595Z,5.83
2022-12-28T06:44:18.292Z,6.27
2022-12-28T06:47:19.999Z,8.40
2022-12-28T06:50:21.725Z,8.00
2022-12-28T06:53:24.858Z,7.73
2022-12-28T06:56:32.311Z,6.90
2022-12-28T06:59:33.973Z,7.40
2022-12-28T07:02:35.742Z,7.23
2022-12-28T07:05:37.531Z,6.63
2022-12-28T07:08:40.104Z,8.20
2022-12-28T07:11:42.618Z,8.47
2022-12-28T07:14:44.361Z,6.97
2022-12-28T07:17:46.000Z,8.60
2022-12-28T07:20:47.720Z,10.00
2022-12-28T07:23:51.376Z,8.13
2022-12-28T07:26:53.024Z,7.83
2022-12-28T07:29:54.649Z,12.93
2022-12-28T07:32:56.263Z,7.53
2022-12-28T07:35:58.488Z,8.73
2022-12-28T07:39:00.608Z,7.63
2022-12-28T07:42:06.656Z,7.80
2022-12-28T07:45:10.783Z,8.83
2022-12-28T07:48:12.432Z,6.43
2022-12-28T07:51:15.982Z,8.13
2022-12-28T07:54:20.556Z,7.87
2022-12-28T07:57:22.243Z,6.30
2022-12-28T08:00:23.976Z,6.90
2022-12-28T08:03:25.680Z,8.93
2022-12-28T08:06:29.622Z,7.47
2022-12-28T08:09:31.325Z,8.97
2022-12-28T08:12:33.024Z,9.00
2022-12-28T08:15:35.324Z,6.90
2022-12-28T08:18:38.629Z,8.43
2022-12-28T08:21:42.677Z,7.90
2022-12-28T08:24:44.372Z,8.03
2022-12-28T08:27:46.082Z,8.80
2022-12-28T08:30:47.863Z,9.63
2022-12-28T08:33:50.007Z,8.50
2022-12-28T08:36:51.686Z,7.57
2022-12-28T08:39:53.357Z,7.00
2022-12-28T08:42:59.121Z,6.80
2022-12-28T08:46:13.034Z,6.53
2022-12-28T08:49:14.897Z,8.50
2022-12-28T08:52:16.678Z,6.53
2022-12-28T08:55:18.357Z,7.93
2022-12-28T08:58:20.106Z,8.03
2022-12-28T09:01:27.504Z,6.63
2022-12-28T09:04:29.430Z,8.03
2022-12-28T09:07:31.153Z,8.63
2022-12-28T09:10:32.965Z,6.73
2022-12-28T09:13:35.767Z,6.30
2022-12-28T09:16:39.314Z,7.33
2022-12-28T09:19:41.041Z,6.13
2022-12-28T09:22:42.745Z,5.50
2022-12-28T09:25:44.440Z,7.67
2022-12-28T09:28:51.838Z,9.17
2022-12-28T09:31:53.562Z,6.63
2022-12-28T09:34:55.298Z,7.40
2022-12-28T09:37:57.067Z,8.10
2022-12-28T09:40:59.411Z,6.00
2022-12-28T09:44:07.073Z,6.43
2022-12-28T09:47:17.206Z,6.20
2022-12-28T09:50:19.050Z,7.43
2022-12-28T09:53:29.484Z,6.67
2022-12-28T09:56:37.200Z,6.73
2022-12-28T09:59:38.987Z,6.10
2022-12-28T10:02:41.924Z,8.57
2022-12-28T10:05:44.246Z,7.00
2022-12-28T10:08:49.540Z,6.10
2022-12-28T10:11:53.909Z,5.73
2022-12-28T10:14:56.587Z,6.40
2022-12-28T10:18:00.933Z,6.70
2022-12-28T10:21:05.500Z,6.07
2022-12-28T10:27:31.712Z,6.90
2022-12-28T10:30:43.721Z,5.83
2022-12-28T10:33:54.082Z,6.00
2022-12-28T10:36:58.345Z,4.50
2022-12-28T10:40:25.380Z,5.10
2022-12-28T10:43:36.611Z,6.27
2022-12-28T10:46:38.501Z,6.63
2022-12-28T10:50:10.225Z,4.07
2022-12-28T10:53:24.447Z,5.77
2022-12-28T10:56:31.019Z,3.90
2022-12-28T10:59:33.309Z,4.10
2022-12-28T11:02:35.226Z,5.57
2022-12-28T11:05:37.108Z,5.00
2022-12-28T11:08:40.399Z,4.17
2022-12-28T11:11:47.091Z,4.93
2022-12-28T11:14:48.963Z,4.30
2022-12-28T11:18:00.263Z,4.30
2022-12-28T11:21:01.977Z,5.70
2022-12-28T11:24:04.720Z,4.60
2022-12-28T11:27:09.946Z,3.73
2022-12-28T11:30:18.147Z,3.80
2022-12-28T11:33:39.528Z,5.93
2022-12-28T11:36:41.450Z,4.40
2022-12-28T11:39:45.629Z,4.53
2022-12-28T11:42:55.955Z,5.83
2022-12-28T11:46:02.724Z,3.93
2022-12-28T11:49:25.899Z,4.47
2022-12-28T11:52:34.149Z,3.57
2022-12-28T11:55:59.699Z,3.70
2022-12-28T11:59:04.975Z,9.10
2022-12-28T12:02:29.565Z,7.80
2022-12-28T12:05:37.513Z,4.53
2022-12-28T12:08:41.263Z,3.83
2022-12-28T12:11:43.096Z,3.43
2022-12-28T12:14:48.809Z,5.63
2022-12-28T12:18:07.294Z,4.67
2022-12-28T12:21:15.633Z,4.10
2022-12-28T12:24:32.424Z,3.37
2022-12-28T12:27:40.243Z,4.90
2022-12-28T12:30:44.412Z,3.00
2022-12-28T12:33:48.881Z,3.40
2022-12-28T12:37:03.763Z,6.20
2022-12-28T12:40:24.290Z,3.97
2022-12-28T12:43:46.391Z,3.43
2022-12-28T12:47:06.378Z,3.33
2022-12-28T12:50:20.207Z,3.00
2022-12-28T12:53:48.911Z,3.70
2022-12-28T12:57:06.521Z,3.13
2022-12-28T13:00:18.243Z,3.17
2022-12-28T13:03:34.798Z,5.17
2022-12-28T13:06:39.628Z,4.60
2022-12-28T13:09:43.443Z,4.83
2022-12-28T13:12:45.631Z,3.40
2022-12-28T13:15:48.377Z,3.53
2022-12-28T13:19:18.963Z,6.13
2022-12-28T13:22:48.026Z,4.77
2022-12-28T13:25:53.450Z,3.70
2022-12-28T13:29:08.139Z,3.40
2022-12-28T13:32:36.169Z,4.03
2022-12-28T13:35:39.845Z,4.87
2022-12-28T13:38:41.782Z,4.27
2022-12-28T13:42:11.964Z,3.30
2022-12-28T13:45:16.522Z,3.10
2022-12-28T13:48:18.569Z,3.17
2022-12-28T13:51:21.787Z,3.57
2022-12-28T13:54:25.127Z,2.77
2022-12-28T13:57:49.152Z,5.77
2022-12-28T14:00:55.227Z,4.73
2022-12-28T14:04:33.651Z,6.97
2022-12-28T14:07:29.807Z,4.77
2022-12-28T14:10:31.770Z,5.20
2022-12-28T14:13:34.819Z,4.70
2022-12-28T14:16:38.006Z,4.93
2022-12-28T14:19:40.163Z,4.13
2022-12-28T14:22:42.282Z,3.10
2022-12-28T14:25:43.970Z,6.53
2022-12-28T14:28:52.960Z,3.53
2022-12-28T14:31:57.545Z,2.77
2022-12-28T14:35:01.189Z,3.43
2022-12-28T14:38:03.044Z,5.60
2022-12-28T14:41:05.711Z,3.10
2022-12-28T14:44:20.055Z,3.13
2022-12-28T14:47:47.900Z,3.23
2022-12-28T14:51:26.590Z,3.73
2022-12-28T14:54:30.097Z,3.33
2022-12-28T14:57:43.085Z,2.63
2022-12-28T15:00:58.744Z,2.87
2022-12-28T15:04:05.623Z,3.13
2022-12-28T15:07:11.934Z,4.83
2022-12-28T15:10:15.895Z,5.03
2022-12-28T15:13:21.009Z,4.60
2022-12-28T15:16:23.384Z,6.10
2022-12-28T15:19:25.170Z,3.43
2022-12-28T15:22:26.897Z,3.87
2022-12-28T15:25:28.651Z,4.00
2022-12-28T15:28:30.309Z,5.13
2022-12-28T15:31:32.060Z,3.10
2022-12-28T15:34:33.778Z,3.13
2022-12-28T15:37:35.472Z,4.83
2022-12-28T15:40:39.836Z,2.70
2022-12-28T15:43:41.472Z,5.07
2022-12-28T15:46:43.565Z,8.03
2022-12-28T15:49:45.315Z,2.80
2022-12-28T15:52:47.123Z,6.83
2022-12-28T15:56:00.505Z,2.80
2022-12-28T15:59:05.912Z,3.90
2022-12-28T16:02:10.950Z,3.87
2022-12-28T16:05:12.812Z,2.90
2022-12-28T16:08:17.613Z,2.57
2022-12-28T16:11:19.845Z,2.67
2022-12-28T16:14:21.553Z,3.20
2022-12-28T16:17:23.307Z,2.90
2022-12-28T16:20:25.047Z,2.37
2022-12-28T16:23:29.369Z,4.80
2022-12-28T16:26:31.159Z,3.30
2022-12-28T16:29:35.013Z,4.03
2022-12-28T16:32:36.745Z,4.37
2022-12-28T16:35:38.501Z,3.70
2022-12-28T16:38:40.162Z,3.07
2022-12-28T16:41:42.105Z,3.83
2022-12-28T16:44:43.941Z,2.90
2022-12-28T16:47:45.655Z,2.70
2022-12-28T16:50:58.109Z,3.60
2022-12-28T16:54:02.674Z,3.90
2022-12-28T16:57:04.543Z,3.80
2022-12-28T17:00:07.025Z,4.03
2022-12-28T17:03:08.874Z,2.47
2022-12-28T17:06:11.044Z,3.60
2022-12-28T17:09:16.103Z,3.33
2022-12-28T17:12:17.841Z,2.70
2022-12-28T17:15:19.635Z,2.20
2022-12-28T17:18:21.625Z,3.37
2022-12-28T17:21:28.169Z,2.80
2022-12-28T17:24:30.243Z,4.17
2022-12-28T17:27:35.461Z,2.70
2022-12-28T17:30:37.130Z,4.67
2022-12-28T17:33:40.036Z,4.93
2022-12-28T17:36:42.048Z,4.73
2022-12-28T17:39:44.580Z,4.03
2022-12-28T17:42:46.296Z,3.50
2022-12-28T17:45:48.081Z,4.60
2022-12-28T17:48:55.209Z,4.33
2022-12-28T17:51:57.148Z,5.13
2022-12-28T17:54:58.886Z,4.30
2022-12-28T17:58:03.182Z,3.83
2022-12-28T18:01:05.141Z,3.23
2022-12-28T18:04:13.468Z,3.20
2022-12-28T18:07:15.127Z,3.23
2022-12-28T18:10:17.619Z,3.10
2022-12-28T18:13:21.903Z,3.53
2022-12-28T18:16:52.249Z,3.97
2022-12-28T18:19:56.221Z,5.17
2022-12-28T18:22:57.952Z,3.23
2022-12-28T18:26:12.452Z,4.00
2022-12-28T18:29:14.090Z,3.33
2022-12-28T18:32:15.823Z,3.30
2022-12-28T18:35:17.698Z,3.20
2022-12-28T18:38:19.466Z,3.30
2022-12-28T18:41:22.311Z,4.13
2022-12-28T18:44:25.080Z,3.30
2022-12-28T18:47:27.166Z,3.13
2022-12-28T18:50:28.900Z,3.57
2022-12-28T18:53:31.431Z,3.37
2022-12-28T18:56:36.042Z,4.33
2022-12-28T18:59:37.750Z,4.27
2022-12-28T19:02:39.664Z,4.60
2022-12-28T19:05:41.462Z,3.10
2022-12-28T19:08:43.206Z,3.90
2022-12-28T19:11:45.182Z,3.00
2022-12-28T19:14:46.826Z,4.47
2022-12-28T19:17:48.536Z,2.40
2022-12-28T19:20:54.839Z,2.60
2022-12-28T19:24:04.329Z,3.47
2022-12-28T19:27:06.004Z,4.50
2022-12-28T19:30:08.382Z,2.83
2022-12-28T19:33:10.073Z,3.73
2022-12-28T19:36:12.244Z,3.17
2022-12-28T19:39:14.015Z,2.23
2022-12-28T19:42:15.697Z,4.03
2022-12-28T19:45:18.307Z,2.30
2022-12-28T19:48:20.049Z,3.40
2022-12-28T19:51:27.102Z,2.40
2022-12-28T19:54:32.872Z,3.23
2022-12-28T19:57:34.623Z,2.23
2022-12-28T20:00:36.748Z,2.43
2022-12-28T20:03:39.087Z,2.57
2022-12-28T20:06:42.336Z,4.60
2022-12-28T20:09:43.979Z,3.63
2022-12-28T20:12:45.742Z,3.70
2022-12-28T20:15:50.147Z,2.37
2022-12-28T20:18:53.902Z,2.70
2022-12-28T20:21:55.655Z,2.50
2022-12-28T20:25:00.015Z,3.73
2022-12-28T20:28:01.681Z,3.17
2022-12-28T20:31:05.819Z,2.97
2022-12-28T20:34:07.654Z,4.00
2022-12-28T20:37:09.449Z,2.63
2022-12-28T20:40:11.726Z,2.47
2022-12-28T20:43:25.402Z,3.13
2022-12-28T20:46:27.839Z,2.57
2022-12-28T20:49:31.330Z,2.77
2022-12-28T20:52:32.999Z,2.90
2022-12-28T20:55:34.743Z,3.33
2022-12-28T20:58:39.697Z,2.40
2022-12-28T21:01:42.464Z,3.17
2022-12-28T21:04:44.233Z,2.30
2022-12-28T21:07:46.093Z,3.83
2022-12-28T21:10:50.597Z,2.50
2022-12-28T21:13:52.334Z,2.40
2022-12-28T21:16:54.255Z,2.40
2022-12-28T21:19:56.968Z,2.37
2022-12-28T21:22:58.680Z,2.33
2022-12-28T21:26:02.008Z,4.90
2022-12-28T21:29:03.765Z,2.77
2022-12-28T21:32:05.702Z,4.00
2022-12-28T21:35:07.994Z,2.30
2022-12-28T21:38:09.632Z,2.60
2022-12-28T21:41:16.868Z,2.63
2022-12-28T21:44:21.949Z,3.10
2022-12-28T21:47:25.700Z,2.97
2022-12-28T21:50:27.391Z,2.50
2022-12-28T21:53:29.058Z,3.43
2022-12-28T21:56:32.309Z,2.73
2022-12-28T21:59:35.058Z,2.83
2022-12-28T22:02:55.340Z,2.17
2022-12-28T22:06:02.680Z,2.30
2022-12-28T22:09:22.857Z,2.70
2022-12-28T22:12:35.163Z,2.83
2022-12-28T22:15:51.784Z,4.07
2022-12-28T22:19:02.307Z,2.97
2022-12-28T22:22:04.563Z,3.90
2022-12-28T22:25:06.696Z,2.83
2022-12-28T22:28:08.829Z,2.73
2022-12-28T22:31:10.556Z,4.23
2022-12-28T22:34:12.269Z,3.10
2022-12-28T22:37:14.455Z,2.77
2022-12-28T22:40:16.768Z,3.23
2022-12-28T22:43:18.497Z,3.67
2022-12-28T22:46:21.693Z,4.33
2022-12-28T22:49:23.425Z,3.10
2022-12-28T22:52:25.203Z,2.97
2022-12-28T22:55:26.885Z,4.43
2022-12-28T22:58:28.985Z,2.80
2022-12-28T23:01:30.814Z,3.17
2022-12-28T23:04:32.635Z,2.70
2022-12-28T23:08:14.893Z,2.93
2022-12-28T23:11:36.810Z,2.50
2022-12-28T23:14:57.119Z,2.40
2022-12-28T23:18:18.404Z,4.17
2022-12-28T23:21:41.356Z,2.20
2022-12-28T23:25:01.800Z,4.67
2022-12-28T23:28:06.475Z,3.10
2022-12-28T23:31:08.176Z,4.27
2022-12-28T23:34:09.896Z,2.50
2022-12-28T23:37:11.720Z,3.20
2022-12-28T23:40:16.066Z,2.57
2022-12-28T23:43:17.744Z,2.60
2022-12-28T23:46:19.558Z,2.67
2022-12-28T23:49:21.570Z,3.47
2022-12-28T23:52:25.997Z,2.83
2022-12-28T23:55:27.875Z,2.60
2022-12-28T23:58:29.574Z,4.13
